Time;durP1;ratioP1;P1;durP2;ratioP2;P2;SDS_P1;SDS_P2;PMS_P1;PMS_P2;Temp;Humidity;BMP_temperature;BMP_pressure;BME280_temperature;BME280_humidity;BME280_pressure;Samples;Min_cycle;Max_cycle;Signal;HPM_P1;HPM_P2
2021/01/16 00:00:23;;;;;;;8.57;5.72;;;-1.20;70.50;;;;;;5047745;28;20056;-60
2021/01/16 00:02:49;;;;;;;8.77;5.82;;;-1.10;70.90;;;;;;5045146;28;20090;-59
2021/01/16 00:05:18;;;;;;;7.93;6.00;;;-1.10;70.30;;;;;;5061305;28;20024;-59
2021/01/16 00:07:47;;;;;;;7.70;5.80;;;-1.10;69.40;;;;;;5053657;28;20041;-60
2021/01/16 00:10:15;;;;;;;9.18;5.55;;;-1.10;68.30;;;;;;5061015;28;20058;-60
2021/01/16 00:12:47;;;;;;;7.65;5.45;;;-1.30;69.20;;;;;;5060245;28;20029;-58
2021/01/16 00:15:13;;;;;;;8.25;5.63;;;-1.50;69.50;;;;;;5054757;28;20029;-57
2021/01/16 00:17:39;;;;;;;8.55;5.80;;;-1.50;70.10;;;;;;5057796;28;20043;-59
2021/01/16 00:20:05;;;;;;;9.20;5.45;;;-1.40;70.30;;;;;;5054287;28;20024;-59
2021/01/16 00:22:31;;;;;;;7.53;5.32;;;-1.40;70.00;;;;;;5053362;28;20045;-59
2021/01/16 00:24:58;;;;;;;8.52;5.88;;;-1.40;69.70;;;;;;5053906;28;20033;-59
2021/01/16 00:27:24;;;;;;;8.93;5.80;;;-1.40;70.00;;;;;;5049863;28;20030;-59
2021/01/16 00:29:50;;;;;;;9.85;5.80;;;-1.40;70.10;;;;;;5072943;28;20049;-59
2021/01/16 00:32:15;;;;;;;8.82;5.32;;;-1.40;69.30;;;;;;5065899;28;20025;-60
2021/01/16 00:34:41;;;;;;;8.27;5.50;;;-1.30;69.50;;;;;;5054349;28;20033;-59
2021/01/16 00:37:07;;;;;;;8.90;5.18;;;-1.20;69.70;;;;;;5041669;28;20112;-61
2021/01/16 00:39:32;;;;;;;7.55;5.45;;;-1.20;70.00;;;;;;5048826;28;20037;-61
2021/01/16 00:41:58;;;;;;;8.32;5.70;;;-1.30;70.00;;;;;;5053196;28;20029;-59
2021/01/16 00:44:23;;;;;;;8.77;5.65;;;-1.30;70.20;;;;;;5053902;28;20025;-61
2021/01/16 00:46:49;;;;;;;9.55;5.60;;;-1.30;69.50;;;;;;5059195;28;20025;-60
2021/01/16 00:49:14;;;;;;;8.82;5.90;;;-1.50;70.50;;;;;;5048375;28;20037;-60
2021/01/16 00:51:40;;;;;;;8.95;5.53;;;-1.50;70.70;;;;;;5053458;28;20044;-60
2021/01/16 00:54:05;;;;;;;7.93;5.07;;;-1.70;71.50;;;;;;5048124;28;20036;-67
2021/01/16 00:56:31;;;;;;;7.82;5.20;;;-1.60;71.20;;;;;;5053918;28;20040;-62
2021/01/16 00:58:56;;;;;;;8.50;5.95;;;-1.50;72.70;;;;;;5052823;28;20049;-61
2021/01/16 01:01:22;;;;;;;9.18;5.13;;;-1.30;74.50;;;;;;5053255;28;20029;-62
2021/01/16 01:03:47;;;;;;;7.63;5.10;;;-1.20;70.80;;;;;;5052504;28;20043;-61
2021/01/16 01:06:13;;;;;;;7.95;5.30;;;-1.20;70.20;;;;;;5053401;28;20056;-62
2021/01/16 01:08:39;;;;;;;7.10;4.95;;;-1.40;70.10;;;;;;5052234;28;20029;-61
2021/01/16 01:11:04;;;;;;;7.38;5.50;;;-1.40;70.40;;;;;;5053238;28;20037;-62
2021/01/16 01:13:30;;;;;;;8.05;4.70;;;-1.40;70.20;;;;;;5053010;28;20037;-60
2021/01/16 01:15:55;;;;;;;7.90;5.03;;;-1.40;69.00;;;;;;5053942;28;20037;-61
2021/01/16 01:18:21;;;;;;;7.65;4.90;;;-1.40;70.20;;;;;;5054454;28;20072;-61
2021/01/16 01:20:46;;;;;;;10.77;4.97;;;-1.60;71.00;;;;;;5057520;28;20484;-61
2021/01/16 01:23:12;;;;;;;6.57;4.90;;;-1.50;70.70;;;;;;5060075;28;20506;-60
2021/01/16 01:25:37;;;;;;;7.18;5.00;;;-1.40;70.80;;;;;;5055143;28;20538;-61
2021/01/16 01:28:03;;;;;;;8.70;5.10;;;-1.40;70.40;;;;;;5060851;28;20037;-60
2021/01/16 01:30:31;;;;;;;7.47;4.93;;;-1.40;69.90;;;;;;5052937;28;20045;-61
2021/01/16 01:32:57;;;;;;;7.30;5.07;;;-1.50;70.50;;;;;;5050971;28;20427;-61
2021/01/16 01:35:23;;;;;;;7.07;5.13;;;-1.50;70.20;;;;;;5052861;28;20033;-59
2021/01/16 01:37:54;;;;;;;7.50;5.10;;;-1.50;70.70;;;;;;5036456;28;20033;-58
2021/01/16 01:40:22;;;;;;;8.10;5.05;;;-1.50;70.80;;;;;;5052870;28;20036;-62
2021/01/16 01:42:50;;;;;;;8.32;5.60;;;-1.50;69.90;;;;;;5052321;28;20033;-61
2021/01/16 01:45:16;;;;;;;5.75;4.55;;;-1.50;71.20;;;;;;5053147;28;20526;-61
2021/01/16 01:47:43;;;;;;;8.43;4.88;;;-1.50;70.40;;;;;;5045940;28;20043;-62
2021/01/16 01:50:11;;;;;;;7.57;5.20;;;-1.40;70.80;;;;;;5038687;28;20021;-61
2021/01/16 01:52:39;;;;;;;8.20;4.85;;;-1.50;70.60;;;;;;5044491;28;20064;-61
2021/01/16 01:55:07;;;;;;;6.55;4.68;;;-1.60;71.00;;;;;;5056535;28;20342;-62
2021/01/16 01:57:36;;;;;;;6.70;4.65;;;-1.60;71.70;;;;;;5056016;28;20033;-63
2021/01/16 02:00:09;;;;;;;6.57;4.38;;;-1.40;70.40;;;;;;5059375;28;20037;-61
2021/01/16 02:02:36;;;;;;;6.57;4.82;;;-1.30;70.00;;;;;;5059490;28;20088;-64
2021/01/16 02:05:06;;;;;;;6.10;4.30;;;-1.40;70.10;;;;;;5058070;28;20035;-61
2021/01/16 02:07:37;;;;;;;7.32;4.72;;;-1.60;71.00;;;;;;5063404;28;20045;-61
2021/01/16 02:10:07;;;;;;;8.52;4.75;;;-1.50;70.60;;;;;;5063271;28;20036;-62
2021/01/16 02:12:32;;;;;;;7.68;4.90;;;-1.40;70.30;;;;;;5073895;28;20497;-62
2021/01/16 02:15:27;;;;;;;6.55;4.55;;;-1.60;71.40;;;;;;5067334;28;20099;-62
2021/01/16 02:18:10;;;;;;;9.10;5.93;;;-1.40;71.10;;;;;;5073403;28;20072;-63
2021/01/16 02:20:36;;;;;;;7.00;4.88;;;-1.60;71.80;;;;;;5041657;28;20700;-61
2021/01/16 02:23:15;;;;;;;6.97;5.15;;;-1.50;71.90;;;;;;5052523;28;20029;-63
2021/01/16 02:25:40;;;;;;;8.23;4.75;;;-1.30;70.90;;;;;;5038730;28;20385;-63
2021/01/16 02:28:18;;;;;;;8.35;4.65;;;-1.30;71.10;;;;;;5054450;28;20051;-62
2021/01/16 02:30:45;;;;;;;6.55;4.90;;;-1.30;71.00;;;;;;5042621;28;20373;-61
2021/01/16 02:33:15;;;;;;;8.57;5.10;;;-1.30;70.70;;;;;;5053112;28;20055;-61
2021/01/16 02:36:07;;;;;;;6.43;4.53;;;-1.40;71.30;;;;;;5052088;28;20037;-64
2021/01/16 02:38:58;;;;;;;7.93;4.72;;;-1.30;70.80;;;;;;5041308;28;20036;-62
2021/01/16 02:41:42;;;;;;;6.45;4.25;;;-1.20;70.80;;;;;;5052641;28;20451;-61
2021/01/16 02:44:17;;;;;;;9.82;5.35;;;-1.30;70.90;;;;;;5038350;28;20036;-63
2021/01/16 02:46:48;;;;;;;8.82;4.90;;;-1.30;71.40;;;;;;5051827;28;20041;-63
2021/01/16 02:49:20;;;;;;;7.40;4.72;;;-1.30;70.90;;;;;;5054182;28;20119;-63
2021/01/16 02:52:13;;;;;;;7.78;4.85;;;-1.30;70.90;;;;;;5041336;28;20026;-63
2021/01/16 02:54:40;;;;;;;8.20;4.25;;;-1.50;71.30;;;;;;5047117;28;20414;-62
2021/01/16 02:57:08;;;;;;;7.50;5.07;;;-1.30;70.70;;;;;;5046519;28;20029;-62
2021/01/16 02:59:36;;;;;;;8.25;4.50;;;-1.30;71.10;;;;;;5050523;28;20037;-60
2021/01/16 03:02:04;;;;;;;9.00;5.07;;;-1.40;71.40;;;;;;5048745;28;20033;-62
2021/01/16 03:04:31;;;;;;;8.80;4.78;;;-1.40;71.70;;;;;;5040230;28;20034;-62
2021/01/16 03:06:58;;;;;;;7.45;5.07;;;-1.40;71.70;;;;;;5040897;28;20048;-61
2021/01/16 03:09:23;;;;;;;7.65;5.28;;;-1.60;72.20;;;;;;5048738;28;20036;-61
2021/01/16 03:11:51;;;;;;;7.03;4.60;;;-1.60;72.40;;;;;;5049488;28;20033;-61
2021/01/16 03:14:19;;;;;;;7.30;4.68;;;-1.40;72.10;;;;;;5048700;28;20033;-61
2021/01/16 03:17:04;;;;;;;5.82;4.45;;;-1.40;72.10;;;;;;5049937;28;20052;-62
2021/01/16 03:19:32;;;;;;;7.97;5.07;;;-1.50;72.10;;;;;;5050288;28;20103;-62
2021/01/16 03:21:58;;;;;;;6.80;4.30;;;-1.60;71.80;;;;;;5085421;28;20021;-61
2021/01/16 03:24:23;;;;;;;7.45;5.20;;;-1.50;72.20;;;;;;5068118;28;20040;-61
2021/01/16 03:26:49;;;;;;;7.38;4.68;;;-1.50;72.70;;;;;;5051307;28;20033;-61
2021/01/16 03:29:15;;;;;;;7.32;5.28;;;-1.30;72.00;;;;;;5050641;28;20044;-60
2021/01/16 03:31:40;;;;;;;7.05;4.88;;;-1.40;71.70;;;;;;5036468;28;20046;-62
2021/01/16 03:34:06;;;;;;;7.05;4.70;;;-1.50;71.90;;;;;;5050821;28;20103;-62
2021/01/16 03:36:32;;;;;;;6.50;4.40;;;-1.40;71.30;;;;;;5050191;28;20041;-62
2021/01/16 03:38:57;;;;;;;6.45;4.78;;;-1.40;71.40;;;;;;5050806;28;20037;-62
2021/01/16 03:41:23;;;;;;;10.02;5.18;;;-1.40;71.90;;;;;;5050266;28;20099;-61
2021/01/16 03:43:49;;;;;;;7.28;5.00;;;-1.30;71.60;;;;;;5050525;28;20411;-62
2021/01/16 03:46:14;;;;;;;8.23;4.90;;;-1.40;72.30;;;;;;5055151;28;20037;-62
2021/01/16 03:48:41;;;;;;;8.88;5.25;;;-1.30;72.10;;;;;;5056487;28;20045;-62
2021/01/16 03:51:06;;;;;;;9.10;5.40;;;-1.30;71.80;;;;;;5053376;28;20045;-62
2021/01/16 03:53:32;;;;;;;6.35;4.60;;;-1.40;72.50;;;;;;5057399;28;20090;-58
2021/01/16 03:55:58;;;;;;;7.40;5.00;;;-1.40;72.70;;;;;;5051034;28;20041;-61
2021/01/16 03:58:23;;;;;;;9.85;5.68;;;-1.40;72.70;;;;;;5049801;28;20154;-62
2021/01/16 04:00:49;;;;;;;7.97;5.25;;;-1.50;73.20;;;;;;5050665;28;20037;-62
2021/01/16 04:03:15;;;;;;;7.60;5.10;;;-1.60;73.30;;;;;;5050761;28;20346;-61
2021/01/16 04:05:40;;;;;;;6.95;4.95;;;-1.80;74.00;;;;;;5051036;28;20122;-61
2021/01/16 04:08:06;;;;;;;10.40;5.38;;;-1.90;74.80;;;;;;5053284;28;20079;-61
2021/01/16 04:10:31;;;;;;;10.18;5.95;;;-1.90;74.70;;;;;;5054290;28;20044;-60
2021/01/16 04:12:57;;;;;;;8.60;5.10;;;-1.80;74.70;;;;;;5053748;28;20487;-62
2021/01/16 04:15:22;;;;;;;7.57;5.03;;;-1.90;73.90;;;;;;5039979;28;20045;-62
2021/01/16 04:17:48;;;;;;;7.68;5.03;;;-2.00;75.10;;;;;;5035579;28;20099;-61
2021/01/16 04:20:14;;;;;;;10.43;5.07;;;-1.90;75.10;;;;;;5054440;28;20048;-59
2021/01/16 04:22:40;;;;;;;6.80;4.85;;;-2.00;75.20;;;;;;5054761;28;20029;-61
2021/01/16 04:25:06;;;;;;;7.15;5.20;;;-1.90;75.60;;;;;;5053025;28;20029;-61
2021/01/16 04:27:33;;;;;;;9.30;5.80;;;-1.80;75.00;;;;;;5053866;28;20056;-61
2021/01/16 04:29:59;;;;;;;7.63;5.32;;;-1.80;75.20;;;;;;5068958;28;20431;-62
2021/01/16 04:32:25;;;;;;;9.07;5.45;;;-1.80;74.70;;;;;;5054711;28;20028;-62
2021/01/16 04:34:50;;;;;;;7.15;5.22;;;-1.70;74.70;;;;;;5064143;28;20433;-61
2021/01/16 04:37:16;;;;;;;7.25;5.13;;;-1.70;74.00;;;;;;5054017;28;20033;-62
2021/01/16 04:39:41;;;;;;;9.18;5.93;;;-1.80;74.00;;;;;;5055778;28;20733;-61
2021/01/16 04:42:10;;;;;;;7.40;4.93;;;-1.80;74.30;;;;;;5074496;28;20513;-62
2021/01/16 04:44:42;;;;;;;7.75;5.57;;;-1.90;74.70;;;;;;5059533;28;20561;-60
2021/01/16 04:47:09;;;;;;;12.13;5.50;;;-1.80;74.70;;;;;;5053406;28;20041;-60
2021/01/16 04:49:36;;;;;;;8.15;5.53;;;-1.70;74.10;;;;;;5052263;28;20049;-60
2021/01/16 04:52:04;;;;;;;10.90;5.20;;;-1.90;74.50;;;;;;5053246;28;20028;-62
2021/01/16 04:54:32;;;;;;;9.27;5.55;;;-1.70;74.60;;;;;;5052244;28;20044;-62
2021/01/16 04:56:58;;;;;;;7.07;4.93;;;-1.80;74.20;;;;;;5053298;28;20037;-62
2021/01/16 04:59:24;;;;;;;9.18;5.63;;;-1.70;73.30;;;;;;5052491;28;20044;-62
2021/01/16 05:01:50;;;;;;;7.43;5.70;;;-1.80;73.20;;;;;;5052750;28;20036;-62
2021/01/16 05:04:16;;;;;;;7.70;5.45;;;-2.00;74.30;;;;;;5047951;28;20029;-62
2021/01/16 05:06:46;;;;;;;8.57;5.32;;;-1.90;73.70;;;;;;5053237;28;20510;-61
2021/01/16 05:09:13;;;;;;;9.07;5.97;;;-1.80;73.60;;;;;;5052088;28;20083;-62
2021/01/16 05:11:43;;;;;;;9.52;5.63;;;-1.90;73.80;;;;;;5052636;28;20021;-61
2021/01/16 05:14:19;;;;;;;6.72;4.78;;;-1.90;73.70;;;;;;5047704;28;20029;-62
2021/01/16 05:16:58;;;;;;;6.78;5.35;;;-1.80;73.70;;;;;;5042602;28;20518;-62
2021/01/16 05:19:32;;;;;;;7.88;5.40;;;-1.90;73.70;;;;;;5052350;28;20039;-63
2021/01/16 05:21:59;;;;;;;8.75;5.55;;;-2.00;74.10;;;;;;5051458;28;20096;-62
2021/01/16 05:24:25;;;;;;;9.10;5.65;;;-1.90;74.20;;;;;;5051757;28;20052;-62
2021/01/16 05:26:53;;;;;;;12.00;6.85;;;-1.90;73.50;;;;;;5052790;28;20041;-63
2021/01/16 05:29:24;;;;;;;10.30;5.90;;;-1.90;73.50;;;;;;5051574;28;20086;-62
2021/01/16 05:31:56;;;;;;;8.82;5.72;;;-1.90;74.10;;;;;;5052292;28;20043;-60
2021/01/16 05:34:26;;;;;;;10.73;6.38;;;-2.10;74.00;;;;;;5048464;28;20037;-58
2021/01/16 05:36:53;;;;;;;8.75;5.50;;;-2.10;74.30;;;;;;5032472;28;20559;-61
2021/01/16 05:39:20;;;;;;;8.80;6.20;;;-2.00;74.00;;;;;;5046017;28;20156;-58
2021/01/16 05:41:47;;;;;;;7.97;5.85;;;-2.00;73.90;;;;;;5052211;28;20104;-60
2021/01/16 05:44:14;;;;;;;9.57;6.68;;;-2.00;73.60;;;;;;5050527;28;20419;-56
2021/01/16 05:46:44;;;;;;;8.50;5.80;;;-1.90;73.90;;;;;;5053919;28;20037;-56
2021/01/16 05:49:15;;;;;;;8.60;5.75;;;-1.90;73.80;;;;;;5052515;28;20751;-60
2021/01/16 05:51:44;;;;;;;9.13;5.30;;;-1.90;72.70;;;;;;5064985;28;20116;-58
2021/01/16 05:54:12;;;;;;;6.70;4.78;;;-2.00;72.80;;;;;;5052171;28;20090;-57
2021/01/16 05:56:39;;;;;;;8.93;5.45;;;-1.90;71.90;;;;;;5051915;28;20119;-57
2021/01/16 05:59:10;;;;;;;6.82;5.03;;;-1.80;71.20;;;;;;5052473;28;20037;-57
2021/01/16 06:01:38;;;;;;;7.65;5.65;;;-1.80;70.40;;;;;;5051373;28;20052;-61
2021/01/16 06:04:04;;;;;;;7.55;5.45;;;-2.00;71.30;;;;;;5047718;28;20139;-59
2021/01/16 06:06:34;;;;;;;7.18;5.90;;;-1.90;71.00;;;;;;5043543;28;20528;-58
2021/01/16 06:09:00;;;;;;;7.45;5.40;;;-1.90;71.10;;;;;;5054553;28;20128;-59
2021/01/16 06:11:25;;;;;;;8.07;5.72;;;-1.80;71.30;;;;;;5087242;28;20502;-57
2021/01/16 06:13:55;;;;;;;8.77;6.03;;;-1.80;71.60;;;;;;5079272;28;20502;-57
2021/01/16 06:16:21;;;;;;;10.52;5.90;;;-1.80;71.70;;;;;;5060975;28;20037;-57
2021/01/16 06:18:51;;;;;;;10.52;6.32;;;-1.80;71.80;;;;;;5076776;28;20040;-60
2021/01/16 06:21:26;;;;;;;7.90;5.72;;;-1.70;72.20;;;;;;5059290;28;20115;-61
2021/01/16 06:23:54;;;;;;;8.07;6.05;;;-1.60;72.10;;;;;;5051698;28;20040;-59
2021/01/16 06:26:21;;;;;;;8.15;5.60;;;-1.60;71.50;;;;;;5044970;28;20119;-60
2021/01/16 06:28:58;;;;;;;8.57;6.15;;;-1.60;71.70;;;;;;5053809;28;20045;-60
2021/01/16 06:31:29;;;;;;;8.98;5.80;;;-1.80;73.00;;;;;;5039763;28;20064;-60
2021/01/16 06:34:06;;;;;;;10.23;6.30;;;-1.70;72.20;;;;;;5071607;28;20028;-58
2021/01/16 06:36:33;;;;;;;8.52;5.78;;;-1.70;72.30;;;;;;5058158;28;20025;-59
2021/01/16 06:39:09;;;;;;;8.35;6.68;;;-1.70;72.60;;;;;;5063440;28;20640;-58
2021/01/16 06:41:37;;;;;;;9.30;6.47;;;-1.70;72.90;;;;;;5057262;28;20049;-59
2021/01/16 06:44:13;;;;;;;9.50;6.43;;;-1.70;73.30;;;;;;5050808;28;20059;-58
2021/01/16 06:46:49;;;;;;;11.57;7.25;;;-1.70;73.50;;;;;;5050853;28;20368;-59
2021/01/16 06:49:31;;;;;;;9.63;6.72;;;-1.70;73.90;;;;;;5049908;28;20033;-59
2021/01/16 06:52:02;;;;;;;9.43;6.25;;;-1.60;73.80;;;;;;5050248;28;20040;-60
2021/01/16 06:54:32;;;;;;;10.63;7.47;;;-1.70;73.80;;;;;;5051030;28;20100;-60
2021/01/16 06:57:01;;;;;;;9.30;7.00;;;-1.90;74.70;;;;;;5050882;28;20083;-59
2021/01/16 06:59:27;;;;;;;10.10;7.38;;;-1.80;74.50;;;;;;5051619;28;20057;-59
2021/01/16 07:01:54;;;;;;;10.38;7.13;;;-1.90;75.00;;;;;;5050163;28;20515;-60
2021/01/16 07:04:21;;;;;;;11.32;7.60;;;-2.00;75.20;;;;;;5045848;28;20036;-59
2021/01/16 07:06:48;;;;;;;10.55;6.55;;;-2.00;75.90;;;;;;5050553;28;20062;-59
2021/01/16 07:09:18;;;;;;;10.35;6.90;;;-1.90;75.50;;;;;;5051093;28;20076;-60
2021/01/16 07:11:50;;;;;;;9.63;6.50;;;-1.80;74.90;;;;;;5050426;28;20138;-61
2021/01/16 07:14:17;;;;;;;10.18;7.15;;;-1.90;75.20;;;;;;5051269;28;20056;-58
2021/01/16 07:16:44;;;;;;;11.15;7.47;;;-1.90;75.10;;;;;;5042297;28;20527;-59
2021/01/16 07:19:11;;;;;;;12.57;8.27;;;-1.80;74.90;;;;;;5044573;28;20044;-58
2021/01/16 07:21:41;;;;;;;9.50;6.97;;;-1.80;74.80;;;;;;5050130;28;20029;-59
2021/01/16 07:24:11;;;;;;;10.45;7.70;;;-1.70;74.40;;;;;;5051036;28;20108;-59
2021/01/16 07:26:39;;;;;;;11.43;7.40;;;-1.70;74.80;;;;;;5050663;28;20029;-60
2021/01/16 07:29:09;;;;;;;10.23;7.90;;;-1.70;74.60;;;;;;5051032;28;20105;-59
2021/01/16 07:31:44;;;;;;;9.68;7.28;;;-1.80;75.40;;;;;;5044286;28;20053;-60
2021/01/16 07:34:10;;;;;;;14.65;8.82;;;-2.10;77.00;;;;;;5045697;28;20095;-57
2021/01/16 07:36:36;;;;;;;13.15;8.27;;;-2.10;77.00;;;;;;5037599;28;20091;-59
2021/01/16 07:39:07;;;;;;;11.57;8.07;;;-2.30;78.20;;;;;;5047091;28;20040;-59
2021/01/16 07:41:35;;;;;;;10.85;8.05;;;-2.30;78.50;;;;;;5054160;28;20033;-58
2021/01/16 07:44:09;;;;;;;10.15;6.88;;;-2.20;78.10;;;;;;5041297;28;20041;-59
2021/01/16 07:46:36;;;;;;;11.43;8.23;;;-2.10;78.20;;;;;;5052791;28;20044;-59
2021/01/16 07:49:04;;;;;;;11.55;7.25;;;-2.20;78.10;;;;;;5053852;28;20037;-59
2021/01/16 07:51:31;;;;;;;12.27;8.23;;;-2.20;78.90;;;;;;5046009;28;20038;-57
2021/01/16 07:54:01;;;;;;;11.32;7.43;;;-2.20;78.60;;;;;;5056026;28;20072;-63
2021/01/16 07:56:36;;;;;;;10.75;7.60;;;-2.20;79.10;;;;;;5054649;28;20082;-63
2021/01/16 07:59:15;;;;;;;9.90;7.22;;;-2.10;78.20;;;;;;5055160;28;20029;-59
2021/01/16 08:02:00;;;;;;;10.88;7.80;;;-2.00;77.80;;;;;;5054292;28;20040;-62
2021/01/16 08:04:30;;;;;;;11.27;7.55;;;-2.10;77.60;;;;;;5050280;28;20017;-62
2021/01/16 08:07:06;;;;;;;10.85;7.43;;;-2.00;77.50;;;;;;5054111;28;20499;-62
2021/01/16 08:09:50;;;;;;;12.05;7.80;;;-1.90;77.50;;;;;;5055778;28;20037;-61
2021/01/16 08:12:18;;;;;;;12.33;7.80;;;-2.00;77.60;;;;;;5056765;28;20025;-58
2021/01/16 08:14:44;;;;;;;10.43;6.90;;;-2.00;78.00;;;;;;5057963;28;20260;-62
2021/01/16 08:17:13;;;;;;;12.40;7.97;;;-1.90;77.50;;;;;;5043240;28;20041;-61
2021/01/16 08:19:53;;;;;;;12.20;8.07;;;-1.80;77.10;;;;;;5055979;28;20033;-63
2021/01/16 08:22:19;;;;;;;14.02;8.38;;;-1.90;77.10;;;;;;5046354;28;20071;-57
2021/01/16 08:25:05;;;;;;;13.88;8.13;;;-1.90;77.30;;;;;;5065537;28;20502;-59
2021/01/16 08:27:32;;;;;;;13.48;8.55;;;-1.90;77.40;;;;;;5057572;28;20507;-59
2021/01/16 08:30:05;;;;;;;16.58;10.52;;;-1.90;77.80;;;;;;5058964;28;20037;-60
2021/01/16 08:32:30;;;;;;;13.27;9.75;;;-1.80;77.20;;;;;;5059516;28;20045;-62
2021/01/16 08:34:58;;;;;;;17.27;9.93;;;-1.80;77.70;;;;;;5057907;28;20622;-61
2021/01/16 08:37:32;;;;;;;16.17;9.65;;;-1.90;77.80;;;;;;5021586;28;20041;-56
2021/01/16 08:40:06;;;;;;;17.20;10.27;;;-2.00;78.10;;;;;;5064299;28;20020;-59
2021/01/16 08:42:32;;;;;;;16.88;10.32;;;-2.10;78.80;;;;;;5066594;28;20073;-60
2021/01/16 08:44:59;;;;;;;13.85;9.68;;;-2.10;78.90;;;;;;5062873;28;20036;-61
2021/01/16 08:47:25;;;;;;;13.43;9.38;;;-2.10;79.20;;;;;;5064693;28;20036;-60
2021/01/16 08:49:51;;;;;;;16.55;10.43;;;-2.10;78.90;;;;;;5080298;28;20035;-58
2021/01/16 08:52:33;;;;;;;16.08;10.60;;;-2.20;78.90;;;;;;5048002;28;20450;-61
2021/01/16 08:55:01;;;;;;;13.38;9.73;;;-2.20;79.00;;;;;;5056813;28;20033;-62
2021/01/16 08:57:31;;;;;;;16.98;10.77;;;-2.20;79.40;;;;;;5047343;28;20516;-61
2021/01/16 09:00:16;;;;;;;19.35;10.60;;;-2.30;79.70;;;;;;5053786;28;20039;-59
2021/01/16 09:02:43;;;;;;;17.63;11.18;;;-2.20;79.40;;;;;;5047455;28;20037;-60
2021/01/16 09:05:22;;;;;;;15.65;9.75;;;-2.20;79.30;;;;;;5046113;28;20032;-62
2021/01/16 09:07:49;;;;;;;16.77;11.18;;;-2.10;78.90;;;;;;5053757;28;20068;-61
2021/01/16 09:10:21;;;;;;;18.73;11.27;;;-2.00;78.80;;;;;;5038516;28;20039;-59
2021/01/16 09:12:47;;;;;;;18.08;11.18;;;-2.00;78.50;;;;;;5045849;28;20036;-58
2021/01/16 09:15:39;;;;;;;17.63;11.55;;;-1.90;78.30;;;;;;5042917;28;20134;-61
2021/01/16 09:18:10;;;;;;;17.70;11.20;;;-1.70;78.10;;;;;;5047089;28;20036;-62
2021/01/16 09:20:39;;;;;;;16.85;11.52;;;-1.60;77.20;;;;;;5043006;28;20083;-63
2021/01/16 09:23:21;;;;;;;16.15;10.88;;;-1.50;77.30;;;;;;5069511;28;20033;-58
2021/01/16 09:26:18;;;;;;;20.83;11.88;;;-1.50;77.10;;;;;;5046131;28;20041;-61
2021/01/16 09:28:48;;;;;;;16.30;11.05;;;-1.50;76.60;;;;;;5044161;28;20167;-60
2021/01/16 09:31:47;;;;;;;16.50;10.98;;;-1.60;77.00;;;;;;5040382;28;20037;-59
2021/01/16 09:34:17;;;;;;;17.80;11.15;;;-1.70;77.50;;;;;;5048466;28;20510;-61
2021/01/16 09:37:00;;;;;;;20.15;12.23;;;-1.80;78.30;;;;;;5047693;28;20055;-56
2021/01/16 09:39:30;;;;;;;19.75;11.63;;;-1.70;76.90;;;;;;5052101;28;20378;-59
2021/01/16 09:41:58;;;;;;;16.38;10.90;;;-1.60;77.30;;;;;;5052036;28;20586;-57
2021/01/16 09:44:39;;;;;;;16.20;10.98;;;-1.60;76.80;;;;;;5047520;28;20553;-62
2021/01/16 09:47:25;;;;;;;19.25;11.65;;;-1.60;77.50;;;;;;5054699;28;20388;-61
2021/01/16 09:49:51;;;;;;;16.58;11.38;;;-1.50;77.20;;;;;;5044257;28;20041;-61
2021/01/16 09:52:18;;;;;;;20.88;12.98;;;-1.50;77.20;;;;;;5058020;28;20024;-60
2021/01/16 09:54:44;;;;;;;17.08;12.43;;;-1.60;77.10;;;;;;5071143;28;20037;-60
2021/01/16 09:57:11;;;;;;;20.35;12.68;;;-1.80;78.30;;;;;;5049383;28;20033;-61
2021/01/16 09:59:36;;;;;;;21.75;12.45;;;-1.80;78.40;;;;;;5053667;28;20132;-62
2021/01/16 10:02:13;;;;;;;19.88;11.82;;;-1.70;78.30;;;;;;5072377;28;20055;-62
2021/01/16 10:04:40;;;;;;;18.70;12.52;;;-1.70;78.30;;;;;;5038686;28;20030;-56
2021/01/16 10:07:09;;;;;;;20.35;12.07;;;-1.60;77.70;;;;;;5046754;28;20171;-63
2021/01/16 10:09:41;;;;;;;21.33;12.32;;;-1.40;77.30;;;;;;5051998;28;20081;-61
2021/01/16 10:12:07;;;;;;;18.40;12.27;;;-1.50;76.90;;;;;;5039287;28;20021;-59
2021/01/16 10:14:36;;;;;;;19.42;12.05;;;-1.50;77.50;;;;;;5054229;28;20047;-59
2021/01/16 10:17:10;;;;;;;18.55;11.02;;;-1.30;76.50;;;;;;5054745;28;20021;-61
2021/01/16 10:19:38;;;;;;;17.07;10.80;;;-1.40;76.50;;;;;;5044851;28;20048;-62
2021/01/16 10:22:04;;;;;;;17.00;11.77;;;-1.50;76.50;;;;;;5053270;28;20060;-60
2021/01/16 10:24:30;;;;;;;17.20;11.20;;;-1.40;76.00;;;;;;5051825;28;20064;-62
2021/01/16 10:26:56;;;;;;;20.50;12.63;;;-1.40;76.30;;;;;;5052022;28;20029;-58
2021/01/16 10:29:37;;;;;;;16.02;11.55;;;-1.40;76.60;;;;;;5050438;28;20099;-62
2021/01/16 10:32:23;;;;;;;17.92;12.40;;;-1.60;77.20;;;;;;5035797;28;20035;-63
2021/01/16 10:34:57;;;;;;;16.85;10.80;;;-1.60;77.00;;;;;;5050888;28;20494;-60
2021/01/16 10:37:24;;;;;;;17.27;10.73;;;-1.70;77.00;;;;;;5044159;28;20053;-60
2021/01/16 10:39:50;;;;;;;16.02;10.77;;;-1.60;77.20;;;;;;5046460;28;20537;-60
2021/01/16 10:42:17;;;;;;;19.88;11.20;;;-1.50;77.10;;;;;;5046453;28;20033;-59
2021/01/16 10:44:43;;;;;;;16.83;11.00;;;-1.30;75.90;;;;;;5040235;28;20041;-63
2021/01/16 10:47:35;;;;;;;15.15;10.52;;;-1.30;75.40;;;;;;5046540;28;20083;-58
2021/01/16 10:50:08;;;;;;;14.75;9.50;;;-1.40;74.20;;;;;;5052005;28;20032;-56
2021/01/16 10:52:34;;;;;;;19.33;11.00;;;-1.20;74.40;;;;;;5051706;28;20068;-61
2021/01/16 10:55:02;;;;;;;15.38;10.70;;;-1.20;74.00;;;;;;5051711;28;20029;-57
2021/01/16 10:57:46;;;;;;;15.85;10.27;;;-1.20;73.70;;;;;;5051586;28;20033;-57
2021/01/16 11:00:17;;;;;;;15.52;10.13;;;-1.10;74.30;;;;;;5052011;28;20040;-62
2021/01/16 11:02:44;;;;;;;15.30;9.63;;;-0.90;71.20;;;;;;5051312;28;20064;-62
2021/01/16 11:05:17;;;;;;;13.65;9.10;;;-0.90;70.60;;;;;;5047093;28;20128;-59
2021/01/16 11:07:50;;;;;;;12.63;8.55;;;-1.10;70.40;;;;;;5048272;28;20029;-62
2021/01/16 11:10:27;;;;;;;14.73;8.43;;;-1.10;69.70;;;;;;5072812;28;20017;-62
2021/01/16 11:12:54;;;;;;;14.02;8.85;;;-0.90;68.50;;;;;;5068219;28;20044;-61
2021/01/16 11:15:26;;;;;;;12.63;8.35;;;-1.00;69.20;;;;;;5072501;28;20017;-56
2021/01/16 11:17:59;;;;;;;15.32;8.80;;;-1.10;69.80;;;;;;5055414;28;20121;-58
2021/01/16 11:20:33;;;;;;;12.57;8.77;;;-0.90;70.20;;;;;;5056967;28;20024;-59
2021/01/16 11:23:08;;;;;;;12.68;8.35;;;-0.70;69.80;;;;;;5056117;28;20495;-59
2021/01/16 11:25:44;;;;;;;12.20;9.02;;;-0.60;69.10;;;;;;5056315;28;20377;-58
2021/01/16 11:28:11;;;;;;;12.82;8.65;;;-0.80;69.90;;;;;;5053325;28;20033;-61
2021/01/16 11:30:46;;;;;;;12.48;8.60;;;-0.80;70.30;;;;;;5057504;28;20037;-60
2021/01/16 11:33:14;;;;;;;12.90;8.40;;;-0.80;70.20;;;;;;5083241;22;20059;-60
2021/01/16 11:35:41;;;;;;;13.48;8.65;;;-0.80;70.20;;;;;;5016644;28;20265;-62
2021/01/16 11:38:39;;;;;;;12.93;8.40;;;-0.80;70.10;;;;;;5026304;28;20135;-57
2021/01/16 11:41:05;;;;;;;10.65;8.00;;;-0.80;70.10;;;;;;5034226;28;20087;-61
2021/01/16 11:43:31;;;;;;;11.85;7.70;;;-0.90;70.70;;;;;;5018906;28;20122;-60
2021/01/16 11:46:07;;;;;;;12.15;8.10;;;-1.00;71.00;;;;;;5018957;28;20033;-58
2021/01/16 11:48:34;;;;;;;12.50;8.07;;;-1.00;70.60;;;;;;5034627;28;20033;-60
2021/01/16 11:51:11;;;;;;;12.90;8.35;;;-0.90;70.80;;;;;;5027715;28;20851;-61
2021/01/16 11:53:37;;;;;;;11.68;7.43;;;-1.00;70.90;;;;;;5017912;28;20105;-62
2021/01/16 11:56:04;;;;;;;11.50;8.30;;;-0.80;70.20;;;;;;5014029;28;20457;-56
2021/01/16 11:58:34;;;;;;;11.20;8.25;;;-0.70;69.70;;;;;;5014520;28;20508;-58
2021/01/16 12:01:01;;;;;;;14.30;8.60;;;-0.70;69.30;;;;;;5017957;28;20051;-56
2021/01/16 12:03:26;;;;;;;11.60;8.38;;;-0.70;70.10;;;;;;5022966;28;20033;-58
2021/01/16 12:05:52;;;;;;;12.70;8.60;;;-0.60;69.80;;;;;;5032881;28;20052;-57
2021/01/16 12:08:24;;;;;;;9.38;8.07;;;-0.60;69.60;;;;;;5034312;28;20037;-59
2021/01/16 12:10:51;;;;;;;10.45;7.35;;;-0.50;68.80;;;;;;5027478;28;20033;-61
2021/01/16 12:13:17;;;;;;;10.95;7.15;;;-0.60;68.20;;;;;;5021855;28;20110;-56
2021/01/16 12:15:43;;;;;;;11.60;8.13;;;-0.90;69.70;;;;;;5027911;28;20030;-59
2021/01/16 12:18:10;;;;;;;12.50;8.52;;;-0.90;70.20;;;;;;5014606;28;20034;-56
2021/01/16 12:20:36;;;;;;;15.38;8.90;;;-0.90;71.00;;;;;;5007671;28;20042;-59
2021/01/16 12:23:02;;;;;;;12.52;8.88;;;-0.80;71.20;;;;;;5012809;28;20057;-60
2021/01/16 12:25:33;;;;;;;14.35;9.13;;;-0.80;71.40;;;;;;5023106;28;20033;-57
2021/01/16 12:28:00;;;;;;;14.77;9.77;;;-0.80;71.60;;;;;;5032694;28;20071;-61
2021/01/16 12:30:37;;;;;;;14.15;10.43;;;-1.00;72.60;;;;;;5027628;28;20025;-60
2021/01/16 12:33:05;;;;;;;14.73;9.85;;;-1.00;73.30;;;;;;5020865;28;20437;-60
2021/01/16 12:35:31;;;;;;;14.40;10.75;;;-0.90;73.20;;;;;;5019830;28;20084;-58
2021/01/16 12:37:57;;;;;;;14.75;10.23;;;-0.90;73.60;;;;;;5023982;28;20026;-60
2021/01/16 12:40:25;;;;;;;16.83;10.45;;;-1.00;74.10;;;;;;5025515;28;20484;-61
2021/01/16 12:42:51;;;;;;;15.45;10.77;;;-1.10;74.80;;;;;;5024755;28;20076;-58
2021/01/16 12:45:23;;;;;;;19.15;10.07;;;-1.20;75.30;;;;;;5021597;28;20026;-59
2021/01/16 12:47:53;;;;;;;17.65;10.50;;;-1.10;75.20;;;;;;5020291;28;20493;-62
2021/01/16 12:50:21;;;;;;;16.85;10.65;;;-1.10;74.20;;;;;;5025180;28;20037;-58
2021/01/16 12:52:49;;;;;;;14.30;10.80;;;-1.10;74.30;;;;;;5022151;28;20504;-61